createdAt,value
2018-03-08T00:00:10.039Z,94448
2018-03-08T00:00:42.087Z,94447
2018-03-08T00:01:14.105Z,94450
2018-03-08T00:01:46.910Z,94448
2018-03-08T00:02:18.955Z,94452
2018-03-08T00:02:51.020Z,94454
2018-03-08T00:03:23.047Z,94451
2018-03-08T00:03:55.109Z,94456
2018-03-08T00:04:27.161Z,94460
2018-03-08T00:04:59.169Z,94460
2018-03-08T00:05:31.971Z,94457
2018-03-08T00:06:03.993Z,94460
2018-03-08T00:06:36.788Z,94462
2018-03-08T00:07:08.824Z,94458
2018-03-08T00:07:41.638Z,94458
2018-03-08T00:08:13.664Z,94458
2018-03-08T00:08:45.723Z,94459
2018-03-08T00:09:17.733Z,94460
2018-03-08T00:09:50.547Z,94463
2018-03-08T00:10:22.561Z,94466
2018-03-08T00:10:55.375Z,94459
2018-03-08T00:11:27.385Z,94466
2018-03-08T00:12:00.184Z,94465
2018-03-08T00:12:32.227Z,94468
2018-03-08T00:13:04.249Z,94467
2018-03-08T00:13:37.046Z,94465
2018-03-08T00:14:09.069Z,94466
2018-03-08T00:14:41.875Z,94471
2018-03-08T00:15:13.912Z,94471
2018-03-08T00:15:45.961Z,94476
2018-03-08T00:16:17.976Z,94471
2018-03-08T00:16:50.009Z,94470
2018-03-08T00:17:22.050Z,94475
2018-03-08T00:17:54.080Z,94478
2018-03-08T00:18:26.872Z,94479
2018-03-08T00:18:58.896Z,94475
2018-03-08T00:19:31.712Z,94475
2018-03-08T00:20:03.742Z,94476
2018-03-08T00:20:35.765Z,94473
2018-03-08T00:21:08.561Z,94471
2018-03-08T00:21:40.606Z,94469
2018-03-08T00:22:12.637Z,94469
2018-03-08T00:22:45.444Z,94476
2018-03-08T00:23:17.497Z,94474
2018-03-08T00:23:49.521Z,94477
2018-03-08T00:24:22.318Z,94479
2018-03-08T00:24:54.351Z,94477
2018-03-08T00:25:26.399Z,94473
2018-03-08T00:25:59.193Z,94482
2018-03-08T00:26:31.226Z,94479
2018-03-08T00:27:03.282Z,94478
2018-03-08T00:27:35.305Z,94479
2018-03-08T00:28:08.101Z,94480
2018-03-08T00:28:40.117Z,94482
2018-03-08T00:29:12.918Z,94486
2018-03-08T00:29:44.953Z,94478
2018-03-08T00:30:17.741Z,94484
2018-03-08T00:30:49.768Z,94482
2018-03-08T00:31:22.562Z,94479
2018-03-08T00:31:54.592Z,94479
2018-03-08T00:32:26.617Z,94485
2018-03-08T00:32:58.649Z,94479
2018-03-08T00:33:30.684Z,94482
2018-03-08T00:34:02.715Z,94479
2018-03-08T00:34:34.748Z,94478
2018-03-08T00:35:06.789Z,94482
2018-03-08T00:35:39.615Z,94481
2018-03-08T00:36:11.652Z,94489
2018-03-08T00:36:43.681Z,94489
2018-03-08T00:37:15.757Z,94487
2018-03-08T00:37:47.785Z,94489
2018-03-08T00:38:19.864Z,94485
2018-03-08T00:38:51.927Z,94482
2018-03-08T00:39:23.943Z,94483
2018-03-08T00:39:55.978Z,94487
2018-03-08T00:40:28.805Z,94484
2018-03-08T00:41:00.888Z,94487
2018-03-08T00:41:32.918Z,94488
2018-03-08T00:42:04.959Z,94486
2018-03-08T00:42:36.996Z,94485
2018-03-08T00:43:09.092Z,94488
2018-03-08T00:43:41.881Z,94490
2018-03-08T00:44:13.912Z,94485
2018-03-08T00:44:46.759Z,94486
2018-03-08T00:45:18.765Z,94486
2018-03-08T00:45:50.781Z,94484
2018-03-08T00:46:23.609Z,94482
2018-03-08T00:46:55.651Z,94487
2018-03-08T00:47:27.671Z,94482
2018-03-08T00:47:59.704Z,94486
2018-03-08T00:48:31.738Z,94491
2018-03-08T00:49:03.782Z,94484
2018-03-08T00:49:35.927Z,94486
2018-03-08T00:50:07.948Z,94486
2018-03-08T00:50:39.994Z,94488
2018-03-08T00:51:12.027Z,94491
2018-03-08T00:51:44.809Z,94492
2018-03-08T00:52:16.841Z,94492
2018-03-08T00:52:49.634Z,94487
2018-03-08T00:53:21.684Z,94493
2018-03-08T00:53:53.721Z,94494
2018-03-08T00:54:26.536Z,94489
2018-03-08T00:54:58.573Z,94488
2018-03-08T00:55:30.585Z,94495
2018-03-08T00:56:03.398Z,94494
2018-03-08T00:56:35.448Z,94487
2018-03-08T00:57:07.488Z,94495
2018-03-08T00:57:39.542Z,94489
2018-03-08T00:58:11.597Z,94486
2018-03-08T00:58:43.627Z,94492
2018-03-08T00:59:16.429Z,94488
2018-03-08T00:59:48.454Z,94491
2018-03-08T01:00:20.605Z,94495
2018-03-08T01:00:52.645Z,94489
2018-03-08T01:01:25.461Z,94489
2018-03-08T01:01:57.570Z,94484
2018-03-08T01:02:30.362Z,94486
2018-03-08T01:03:02.471Z,94490
2018-03-08T01:03:34.434Z,94488
2018-03-08T01:04:07.322Z,94490
2018-03-08T01:04:40.197Z,94489
2018-03-08T01:05:13.026Z,94489
2018-03-08T01:05:45.057Z,94485
2018-03-08T01:06:17.137Z,94493
2018-03-08T01:06:49.187Z,94495
2018-03-08T01:07:21.248Z,94493
2018-03-08T01:07:53.307Z,94492
2018-03-08T01:08:26.165Z,94489
2018-03-08T01:08:58.176Z,94491
2018-03-08T01:09:30.196Z,94494
2018-03-08T01:10:02.232Z,94492
2018-03-08T01:10:35.033Z,94489
2018-03-08T01:11:07.062Z,94491
2018-03-08T01:11:39.100Z,94493
2018-03-08T01:12:11.905Z,94494
2018-03-08T01:12:43.922Z,94495
2018-03-08T01:13:16.708Z,94497
2018-03-08T01:13:48.761Z,94494
2018-03-08T01:14:20.808Z,94496
2018-03-08T01:14:53.642Z,94502
2018-03-08T01:15:25.786Z,94499
2018-03-08T01:15:57.827Z,94495
2018-03-08T01:16:29.865Z,94496
2018-03-08T01:17:01.944Z,94498
2018-03-08T01:17:33.983Z,94498
2018-03-08T01:18:06.084Z,94500
2018-03-08T01:18:38.904Z,94497
2018-03-08T01:19:10.981Z,94495
2018-03-08T01:19:43.023Z,94499
2018-03-08T01:20:15.049Z,94500
2018-03-08T01:20:47.095Z,94501
2018-03-08T01:21:19.123Z,94495
2018-03-08T01:21:51.150Z,94497
2018-03-08T01:22:23.950Z,94498
2018-03-08T01:22:55.981Z,94500
2018-03-08T01:23:28.774Z,94500
2018-03-08T01:24:00.799Z,94501
2018-03-08T01:24:32.874Z,94500
2018-03-08T01:25:05.709Z,94505
2018-03-08T01:25:38.533Z,94501
2018-03-08T01:26:10.618Z,94502
2018-03-08T01:26:42.665Z,94504
2018-03-08T01:27:14.711Z,94500
2018-03-08T01:27:46.735Z,94505
2018-03-08T01:28:18.801Z,94506
2018-03-08T01:28:50.825Z,94506
2018-03-08T01:29:22.905Z,94506
2018-03-08T01:29:54.946Z,94509
2018-03-08T01:30:27.043Z,94505
2018-03-08T01:30:59.036Z,94510
2018-03-08T01:31:31.104Z,94513
2018-03-08T01:32:03.191Z,94505
2018-03-08T01:32:35.198Z,94508
2018-03-08T01:33:07.340Z,94502
2018-03-08T01:33:39.364Z,94505
2018-03-08T01:34:11.389Z,94506
2018-03-08T01:34:43.417Z,94508
2018-03-08T01:35:15.450Z,94512
2018-03-08T01:35:47.532Z,94504
2018-03-08T01:36:19.567Z,94508
2018-03-08T01:36:51.602Z,94504
2018-03-08T01:37:23.624Z,94503
2018-03-08T01:37:55.693Z,94503
2018-03-08T01:38:27.721Z,94504
2018-03-08T01:39:00.511Z,94505
2018-03-08T01:39:32.558Z,94507
2018-03-08T01:40:05.326Z,94506
2018-03-08T01:40:37.356Z,94505
2018-03-08T01:41:10.160Z,94507
2018-03-08T01:41:42.199Z,94507
2018-03-08T01:42:14.214Z,94511
2018-03-08T01:42:46.243Z,94516
2018-03-08T01:43:18.265Z,94515
2018-03-08T01:43:50.286Z,94516
2018-03-08T01:44:23.079Z,94515
2018-03-08T01:44:55.107Z,94512
2018-03-08T01:45:27.900Z,94516
2018-03-08T01:45:59.942Z,94513
2018-03-08T01:46:31.976Z,94513
2018-03-08T01:47:04.805Z,94517
2018-03-08T01:47:36.851Z,94515
2018-03-08T01:48:08.868Z,94517
2018-03-08T01:48:40.897Z,94516
2018-03-08T01:49:13.691Z,94518
2018-03-08T01:49:45.718Z,94519
2018-03-08T01:50:18.507Z,94519
2018-03-08T01:50:50.567Z,94515
2018-03-08T01:51:22.588Z,94516
2018-03-08T01:51:55.451Z,94518
2018-03-08T01:52:27.492Z,94510
2018-03-08T01:52:59.517Z,94514
2018-03-08T01:53:31.536Z,94520
2018-03-08T01:54:03.594Z,94515
2018-03-08T01:54:35.614Z,94520
2018-03-08T01:55:08.420Z,94518
2018-03-08T01:55:40.470Z,94520
2018-03-08T01:56:12.509Z,94517
2018-03-08T01:56:44.534Z,94520
2018-03-08T01:57:17.338Z,94520
2018-03-08T01:57:49.357Z,94521
2018-03-08T01:58:22.164Z,94523
2018-03-08T01:58:54.227Z,94518
2018-03-08T01:59:26.327Z,94516
2018-03-08T01:59:59.126Z,94522
2018-03-08T02:00:31.169Z,94520
2018-03-08T02:01:03.202Z,94524
2018-03-08T02:01:35.997Z,94523
2018-03-08T02:02:08.038Z,94521
2018-03-08T02:02:40.829Z,94522
2018-03-08T02:03:12.878Z,94523
2018-03-08T02:03:44.912Z,94522
2018-03-08T02:04:17.043Z,94523
2018-03-08T02:04:49.058Z,94527
2018-03-08T02:05:21.103Z,94525
2018-03-08T02:05:53.137Z,94526
2018-03-08T02:06:25.184Z,94525
2018-03-08T02:06:57.217Z,94523
2018-03-08T02:07:29.261Z,94527
2018-03-08T02:08:02.065Z,94526
2018-03-08T02:08:34.113Z,94533
2018-03-08T02:09:06.164Z,94528
2018-03-08T02:09:38.180Z,94524
2018-03-08T02:10:10.991Z,94531
2018-03-08T02:10:43.013Z,94527
2018-03-08T02:11:15.036Z,94534
2018-03-08T02:11:47.130Z,94526
2018-03-08T02:12:19.159Z,94527
2018-03-08T02:12:51.951Z,94530
2018-03-08T02:13:23.988Z,94526
2018-03-08T02:13:56.026Z,94523
2018-03-08T02:14:28.807Z,94524
2018-03-08T02:15:00.837Z,94524
2018-03-08T02:15:33.673Z,94526
2018-03-08T02:16:05.701Z,94526
2018-03-08T02:16:37.746Z,94528
2018-03-08T02:17:09.781Z,94530
2018-03-08T02:17:41.821Z,94530
2018-03-08T02:18:14.617Z,94530
2018-03-08T02:18:46.637Z,94530
2018-03-08T02:19:19.462Z,94534
2018-03-08T02:19:51.498Z,94532
2018-03-08T02:20:23.518Z,94531
2018-03-08T02:20:56.307Z,94537
2018-03-08T02:21:28.353Z,94531
2018-03-08T02:22:00.378Z,94535
2018-03-08T02:22:33.208Z,94534
2018-03-08T02:23:05.238Z,94536
2018-03-08T02:23:37.244Z,94540
2018-03-08T02:24:10.049Z,94539
2018-03-08T02:24:42.064Z,94535
2018-03-08T02:25:14.869Z,94538
2018-03-08T02:25:46.913Z,94540
2018-03-08T02:26:18.941Z,94544
2018-03-08T02:26:51.733Z,94539
2018-03-08T02:27:23.758Z,94544
2018-03-08T02:27:56.557Z,94548
2018-03-08T02:28:28.593Z,94545
2018-03-08T02:29:01.376Z,94543
2018-03-08T02:29:33.409Z,94537
2018-03-08T02:30:06.199Z,94538
2018-03-08T02:30:38.240Z,94543
2018-03-08T02:31:10.281Z,94541
2018-03-08T02:31:43.078Z,94542
2018-03-08T02:32:15.123Z,94544
2018-03-08T02:32:47.153Z,94544
2018-03-08T02:33:19.947Z,94539
2018-03-08T02:33:51.989Z,94542
2018-03-08T02:34:24.022Z,94546
2018-03-08T02:34:56.882Z,94547
2018-03-08T02:35:28.921Z,94545
2018-03-08T02:36:00.998Z,94544
2018-03-08T02:36:33.788Z,94545
2018-03-08T02:37:05.832Z,94543
2018-03-08T02:37:37.850Z,94541
2018-03-08T02:38:09.882Z,94541
2018-03-08T02:38:41.907Z,94543
2018-03-08T02:39:13.973Z,94542
2018-03-08T02:39:46.015Z,94543
2018-03-08T02:40:18.054Z,94545
2018-03-08T02:40:50.084Z,94543
2018-03-08T02:41:22.109Z,94540
2018-03-08T02:41:54.128Z,94543
2018-03-08T02:42:26.158Z,94544
2018-03-08T02:42:58.193Z,94546
2018-03-08T02:43:30.232Z,94546
2018-03-08T02:44:03.014Z,94544
2018-03-08T02:44:35.049Z,94551
2018-03-08T02:45:07.831Z,94551
2018-03-08T02:45:39.870Z,94548
2018-03-08T02:46:12.683Z,94549
2018-03-08T02:46:44.701Z,94548
2018-03-08T02:47:16.720Z,94544
2018-03-08T02:47:48.767Z,94545
2018-03-08T02:48:20.777Z,94547
2018-03-08T02:48:52.816Z,94545
2018-03-08T02:49:24.845Z,94546
2018-03-08T02:49:57.656Z,94546
2018-03-08T02:50:29.663Z,94545
2018-03-08T02:51:02.455Z,94547
2018-03-08T02:51:34.494Z,94547
2018-03-08T02:52:07.279Z,94545
2018-03-08T02:52:39.305Z,94545
2018-03-08T02:53:12.099Z,94544
2018-03-08T02:53:44.123Z,94541
2018-03-08T02:54:16.915Z,94546
2018-03-08T02:54:48.962Z,94547
2018-03-08T02:55:20.996Z,94546
2018-03-08T02:55:53.779Z,94549
2018-03-08T02:56:25.813Z,94553
2018-03-08T02:56:58.607Z,94551
2018-03-08T02:57:30.638Z,94555
2018-03-08T02:58:03.424Z,94554
2018-03-08T02:58:35.582Z,94555
2018-03-08T02:59:07.604Z,94556
2018-03-08T02:59:40.403Z,94555
2018-03-08T03:00:12.434Z,94550
2018-03-08T03:00:45.216Z,94553
2018-03-08T03:01:17.250Z,94554
2018-03-08T03:01:50.067Z,94548
2018-03-08T03:02:22.087Z,94550
2018-03-08T03:02:54.121Z,94551
2018-03-08T03:03:26.912Z,94554
2018-03-08T03:03:58.947Z,94553
2018-03-08T03:04:31.006Z,94554
2018-03-08T03:05:03.774Z,94547
2018-03-08T03:05:35.824Z,94551
2018-03-08T03:06:07.862Z,94551
2018-03-08T03:06:40.654Z,94549
2018-03-08T03:07:12.668Z,94551
2018-03-08T03:07:45.473Z,94553
2018-03-08T03:08:17.498Z,94548
2018-03-08T03:08:50.314Z,94552
2018-03-08T03:09:22.329Z,94550
2018-03-08T03:09:54.470Z,94553
2018-03-08T03:10:27.186Z,94550
2018-03-08T03:10:59.301Z,94549
2018-03-08T03:11:32.099Z,94551
2018-03-08T03:12:04.126Z,94548
2018-03-08T03:12:36.161Z,94552
2018-03-08T03:13:08.944Z,94543
2018-03-08T03:13:40.985Z,94545
2018-03-08T03:14:13.770Z,94550
2018-03-08T03:14:45.837Z,94546
2018-03-08T03:15:17.853Z,94546
2018-03-08T03:15:50.658Z,94548
2018-03-08T03:16:22.684Z,94547
2018-03-08T03:16:54.717Z,94549
2018-03-08T03:17:26.745Z,94550
2018-03-08T03:17:58.776Z,94553
2018-03-08T03:18:30.788Z,94541
2018-03-08T03:19:03.601Z,94551
2018-03-08T03:19:35.626Z,94543
2018-03-08T03:20:07.653Z,94549
2018-03-08T03:20:40.437Z,94549
2018-03-08T03:21:12.482Z,94553
2018-03-08T03:21:45.280Z,94552
2018-03-08T03:22:17.320Z,94553
2018-03-08T03:22:49.336Z,94554
2018-03-08T03:23:22.145Z,94554
2018-03-08T03:23:54.222Z,94554
2018-03-08T03:24:26.228Z,94551
2018-03-08T03:24:58.315Z,94556
2018-03-08T03:25:31.070Z,94557
2018-03-08T03:26:03.125Z,94551
2018-03-08T03:26:35.155Z,94556
2018-03-08T03:27:07.962Z,94558
2018-03-08T03:27:39.997Z,94554
2018-03-08T03:28:12.037Z,94553
2018-03-08T03:28:44.049Z,94556
2018-03-08T03:29:16.086Z,94556
2018-03-08T03:29:48.161Z,94559
2018-03-08T03:30:20.962Z,94555
2018-03-08T03:30:52.982Z,94560
2018-03-08T03:31:25.774Z,94556
2018-03-08T03:31:57.792Z,94560
2018-03-08T03:32:29.821Z,94557
2018-03-08T03:33:01.838Z,94556
2018-03-08T03:33:33.894Z,94562
2018-03-08T03:34:05.894Z,94552
2018-03-08T03:34:37.924Z,94555
2018-03-08T03:35:09.964Z,94554
2018-03-08T03:35:41.990Z,94552
2018-03-08T03:36:14.018Z,94551
2018-03-08T03:36:46.807Z,94552
2018-03-08T03:37:18.826Z,94556
2018-03-08T03:37:51.631Z,94551
2018-03-08T03:38:23.646Z,94554
2018-03-08T03:38:56.453Z,94555
2018-03-08T03:39:28.458Z,94557
2018-03-08T03:40:00.497Z,94556
2018-03-08T03:40:32.542Z,94555
2018-03-08T03:41:04.544Z,94563
2018-03-08T03:41:36.578Z,94561
2018-03-08T03:42:09.372Z,94559
2018-03-08T03:42:41.406Z,94558
2018-03-08T03:43:14.197Z,94560
2018-03-08T03:43:46.240Z,94564
2018-03-08T03:44:18.268Z,94561
2018-03-08T03:44:51.069Z,94562
2018-03-08T03:45:23.086Z,94564
2018-03-08T03:45:55.867Z,94566
2018-03-08T03:46:27.936Z,94564
2018-03-08T03:47:00.115Z,94562
2018-03-08T03:47:33.956Z,94567
2018-03-08T03:48:07.908Z,94565
2018-03-08T03:48:39.934Z,94569
2018-03-08T03:49:12.738Z,94564
2018-03-08T03:49:44.762Z,94565
2018-03-08T03:50:17.613Z,94563
2018-03-08T03:50:49.607Z,94566
2018-03-08T03:51:21.647Z,94563
2018-03-08T03:51:54.429Z,94561
2018-03-08T03:52:26.471Z,94558
2018-03-08T03:52:58.509Z,94561
2018-03-08T03:53:31.305Z,94567
2018-03-08T03:54:03.377Z,94562
2018-03-08T03:54:35.418Z,94565
2018-03-08T03:55:07.480Z,94564
2018-03-08T03:55:39.517Z,94563
2018-03-08T03:56:11.560Z,94566
2018-03-08T03:56:43.596Z,94567
2018-03-08T03:57:15.659Z,94559
2018-03-08T03:57:47.686Z,94563
2018-03-08T03:58:20.482Z,94560
2018-03-08T03:58:52.509Z,94566
2018-03-08T03:59:25.303Z,94566
2018-03-08T03:59:57.329Z,94562
2018-03-08T04:00:30.126Z,94566
2018-03-08T04:01:02.153Z,94571
2018-03-08T04:01:34.944Z,94570
2018-03-08T04:02:06.964Z,94572
2018-03-08T04:02:39.768Z,94572
2018-03-08T04:03:11.780Z,94568
2018-03-08T04:03:44.577Z,94572
2018-03-08T04:04:16.601Z,94569
2018-03-08T04:04:49.395Z,94574
2018-03-08T04:05:21.438Z,94580
2018-03-08T04:05:54.227Z,94581
2018-03-08T04:06:26.249Z,94576
2018-03-08T04:06:59.040Z,94578
2018-03-08T04:07:31.072Z,94578
2018-03-08T04:08:03.106Z,94581
2018-03-08T04:08:35.151Z,94583
2018-03-08T04:09:07.170Z,94582
2018-03-08T04:09:39.190Z,94585
2018-03-08T04:10:11.239Z,94581
2018-03-08T04:10:43.253Z,94580
2018-03-08T04:11:15.319Z,94584
2018-03-08T04:11:48.113Z,94585
2018-03-08T04:12:20.136Z,94583
2018-03-08T04:12:52.951Z,94586
2018-03-08T04:13:24.986Z,94588
2018-03-08T04:13:57.022Z,94584
2018-03-08T04:14:29.821Z,94594
2018-03-08T04:15:01.856Z,94591
2018-03-08T04:15:33.881Z,94589
2018-03-08T04:16:06.674Z,94589
2018-03-08T04:16:38.714Z,94592
2018-03-08T04:17:11.509Z,94594
2018-03-08T04:17:43.544Z,94595
2018-03-08T04:18:15.589Z,94592
2018-03-08T04:18:47.708Z,94597
2018-03-08T04:19:19.727Z,94598
2018-03-08T04:19:51.762Z,94597
2018-03-08T04:20:23.790Z,94600
2018-03-08T04:20:56.586Z,94597
2018-03-08T04:21:28.622Z,94600
2018-03-08T04:22:00.649Z,94598
2018-03-08T04:22:33.449Z,94600
2018-03-08T04:23:05.471Z,94601
2018-03-08T04:23:38.272Z,94596
2018-03-08T04:24:10.287Z,94599
2018-03-08T04:24:43.088Z,94601
2018-03-08T04:25:15.114Z,94596
2018-03-08T04:25:47.958Z,94599
2018-03-08T04:26:19.983Z,94597
2018-03-08T04:26:52.011Z,94595
2018-03-08T04:27:24.040Z,94598
2018-03-08T04:27:56.826Z,94601
2018-03-08T04:28:28.852Z,94599
2018-03-08T04:29:01.662Z,94596
2018-03-08T04:29:33.689Z,94599
2018-03-08T04:30:06.481Z,94605
2018-03-08T04:30:38.501Z,94600
2018-03-08T04:31:11.304Z,94602
2018-03-08T04:31:43.322Z,94603
2018-03-08T04:32:15.395Z,94603
2018-03-08T04:32:47.419Z,94604
2018-03-08T04:33:20.214Z,94604
2018-03-08T04:33:52.234Z,94607
2018-03-08T04:34:25.052Z,94609
2018-03-08T04:34:57.058Z,94599
2018-03-08T04:35:29.857Z,94605
2018-03-08T04:36:01.880Z,94603
2018-03-08T04:36:34.671Z,94601
2018-03-08T04:37:06.719Z,94605
2018-03-08T04:37:38.760Z,94610
2018-03-08T04:38:11.571Z,94610
2018-03-08T04:38:43.585Z,94608
2018-03-08T04:39:15.610Z,94608
2018-03-08T04:39:47.640Z,94609
2018-03-08T04:40:19.673Z,94606
2018-03-08T04:40:51.722Z,94606
2018-03-08T04:41:23.728Z,94611
2018-03-08T04:41:56.518Z,94607
2018-03-08T04:42:28.535Z,94609
2018-03-08T04:43:00.561Z,94613
2018-03-08T04:43:32.612Z,94610
2018-03-08T04:44:04.622Z,94616
2018-03-08T04:44:36.649Z,94611
2018-03-08T04:45:09.451Z,94615
2018-03-08T04:45:41.469Z,94613
2018-03-08T04:46:14.271Z,94617
2018-03-08T04:46:46.290Z,94618
2018-03-08T04:47:19.093Z,94615
2018-03-08T04:47:51.120Z,94612
2018-03-08T04:48:23.929Z,94618
2018-03-08T04:48:56.005Z,94615
2018-03-08T04:49:27.989Z,94615
2018-03-08T04:50:00.782Z,94615
2018-03-08T04:50:32.800Z,94615
2018-03-08T04:51:05.595Z,94616
2018-03-08T04:51:37.630Z,94616
2018-03-08T04:52:10.421Z,94621
2018-03-08T04:52:42.452Z,94619
2018-03-08T04:53:14.488Z,94616
2018-03-08T04:53:47.285Z,94623
2018-03-08T04:54:19.370Z,94622
2018-03-08T04:54:52.137Z,94623
2018-03-08T04:55:24.176Z,94615
2018-03-08T04:55:56.212Z,94618
2018-03-08T04:56:28.245Z,94618
2018-03-08T04:57:01.026Z,94622
2018-03-08T04:57:33.052Z,94619
2018-03-08T04:58:05.843Z,94620
2018-03-08T04:58:37.884Z,94626
2018-03-08T04:59:10.661Z,94622
2018-03-08T04:59:42.688Z,94627
2018-03-08T05:00:14.727Z,94628
2018-03-08T05:00:46.805Z,94630
2018-03-08T05:01:19.595Z,94624
2018-03-08T05:01:51.625Z,94624
2018-03-08T05:02:24.423Z,94625
2018-03-08T05:02:56.443Z,94620
2018-03-08T05:03:29.248Z,94632
2018-03-08T05:04:01.298Z,94628
2018-03-08T05:04:33.313Z,94632
2018-03-08T05:05:06.155Z,94632
2018-03-08T05:05:38.155Z,94634
2018-03-08T05:06:10.164Z,94633
2018-03-08T05:06:42.205Z,94635
2018-03-08T05:07:14.241Z,94635
2018-03-08T05:07:46.274Z,94637
2018-03-08T05:08:18.297Z,94636
2018-03-08T05:08:51.116Z,94645
2018-03-08T05:09:23.125Z,94645
2018-03-08T05:09:55.164Z,94639
2018-03-08T05:10:27.956Z,94640
2018-03-08T05:11:00.005Z,94645
2018-03-08T05:11:32.072Z,94641
2018-03-08T05:12:04.108Z,94644
2018-03-08T05:12:36.156Z,94650
2018-03-08T05:13:08.198Z,94645
2018-03-08T05:13:40.227Z,94644
2018-03-08T05:14:12.252Z,94645
2018-03-08T05:14:44.277Z,94652
2018-03-08T05:15:16.489Z,94650
2018-03-08T05:15:48.518Z,94649
2018-03-08T05:16:20.557Z,94650
2018-03-08T05:16:52.590Z,94653
2018-03-08T05:17:24.633Z,94661
2018-03-08T05:17:56.667Z,94657
2018-03-08T05:18:28.684Z,94656
2018-03-08T05:19:00.742Z,94653
2018-03-08T05:19:32.758Z,94657
2018-03-08T05:20:04.779Z,94657
2018-03-08T05:20:36.805Z,94656
2018-03-08T05:21:09.631Z,94662
2018-03-08T05:21:41.653Z,94661
2018-03-08T05:22:13.684Z,94659
2018-03-08T05:22:46.471Z,94664
2018-03-08T05:23:18.494Z,94665
2018-03-08T05:23:51.292Z,94665
2018-03-08T05:24:23.320Z,94661
2018-03-08T05:24:56.107Z,94660
2018-03-08T05:25:28.896Z,94667
2018-03-08T05:26:00.915Z,94664
2018-03-08T05:26:33.712Z,94662
2018-03-08T05:27:05.730Z,94665
2018-03-08T05:27:38.553Z,94667
2018-03-08T05:28:10.541Z,94669
2018-03-08T05:28:43.358Z,94669
2018-03-08T05:29:15.435Z,94667
2018-03-08T05:29:47.455Z,94671
2018-03-08T05:30:19.486Z,94673
2018-03-08T05:30:51.537Z,94670
2018-03-08T05:31:23.541Z,94669
2018-03-08T05:31:55.563Z,94669
2018-03-08T05:32:27.587Z,94675
2018-03-08T05:32:59.624Z,94670
2018-03-08T05:33:32.407Z,94675
2018-03-08T05:34:04.450Z,94671
2018-03-08T05:34:36.488Z,94675
2018-03-08T05:35:09.278Z,94673
2018-03-08T05:35:41.295Z,94677
2018-03-08T05:36:13.325Z,94676
2018-03-08T05:36:45.354Z,94671
2018-03-08T05:37:18.152Z,94674
2018-03-08T05:37:50.247Z,94673
2018-03-08T05:38:22.268Z,94669
2018-03-08T05:38:54.306Z,94678
2018-03-08T05:39:26.363Z,94673
2018-03-08T05:39:58.411Z,94675
2018-03-08T05:40:30.442Z,94673
2018-03-08T05:41:03.229Z,94675
2018-03-08T05:41:35.265Z,94678
2018-03-08T05:42:07.282Z,94674
2018-03-08T05:42:39.318Z,94673
2018-03-08T05:43:11.350Z,94673
2018-03-08T05:43:43.392Z,94676
2018-03-08T05:44:15.514Z,94679
2018-03-08T05:44:48.296Z,94680
2018-03-08T05:45:20.328Z,94678
2018-03-08T05:45:53.127Z,94680
2018-03-08T05:46:25.165Z,94678
2018-03-08T05:46:57.212Z,94680
2018-03-08T05:47:29.242Z,94677
2018-03-08T05:48:01.292Z,94683
2018-03-08T05:48:33.310Z,94681
2018-03-08T05:49:05.348Z,94678
2018-03-08T05:49:37.377Z,94682
2018-03-08T05:50:09.418Z,94678
2018-03-08T05:50:42.349Z,94684
2018-03-08T05:51:14.374Z,94682
2018-03-08T05:51:46.400Z,94682
2018-03-08T05:52:18.457Z,94687
2018-03-08T05:52:50.498Z,94685
2018-03-08T05:53:23.299Z,94684
2018-03-08T05:53:55.358Z,94690
2018-03-08T05:54:27.434Z,94690
2018-03-08T05:54:59.453Z,94686
2018-03-08T05:55:31.567Z,94688
2018-03-08T05:56:04.367Z,94690
2018-03-08T05:56:36.448Z,94693
2018-03-08T05:57:08.484Z,94694
2018-03-08T05:57:40.519Z,94694
2018-03-08T05:58:12.576Z,94692
2018-03-08T05:58:44.893Z,94695
2018-03-08T05:59:16.905Z,94697
2018-03-08T05:59:48.983Z,94699
2018-03-08T06:00:20.994Z,94691
2018-03-08T06:00:53.047Z,94701
2018-03-08T06:01:25.090Z,94703
2018-03-08T06:01:57.874Z,94701
2018-03-08T06:02:29.936Z,94703
2018-03-08T06:03:02.000Z,94698
2018-03-08T06:03:34.768Z,94697
2018-03-08T06:04:06.797Z,94708
2018-03-08T06:04:38.836Z,94708
2018-03-08T06:05:11.612Z,94698
2018-03-08T06:05:43.645Z,94703
2018-03-08T06:06:16.429Z,94705
2018-03-08T06:06:48.461Z,94709
2018-03-08T06:07:21.417Z,94708
2018-03-08T06:07:53.441Z,94707
2018-03-08T06:08:25.478Z,94712
2018-03-08T06:08:57.498Z,94713
2018-03-08T06:09:30.295Z,94714
2018-03-08T06:10:02.320Z,94710
2018-03-08T06:10:35.113Z,94715
2018-03-08T06:11:07.133Z,94716
2018-03-08T06:11:39.916Z,94719
2018-03-08T06:12:11.961Z,94722
2018-03-08T06:12:44.742Z,94717
2018-03-08T06:13:16.793Z,94719
2018-03-08T06:13:48.804Z,94719
2018-03-08T06:14:20.835Z,94721
2018-03-08T06:14:52.864Z,94718
2018-03-08T06:15:24.896Z,94717
2018-03-08T06:15:56.931Z,94723
2018-03-08T06:16:29.718Z,94723
2018-03-08T06:17:01.789Z,94723
2018-03-08T06:17:33.805Z,94720
2018-03-08T06:18:06.596Z,94722
2018-03-08T06:18:38.617Z,94723
2018-03-08T06:19:11.412Z,94721
2018-03-08T06:19:43.437Z,94726
2018-03-08T06:20:16.226Z,94725
2018-03-08T06:20:48.254Z,94729
2018-03-08T06:21:21.049Z,94732
2018-03-08T06:21:53.087Z,94727
2018-03-08T06:22:25.122Z,94731
2018-03-08T06:22:57.919Z,94730
2018-03-08T06:23:29.965Z,94733
2018-03-08T06:24:01.997Z,94735
2018-03-08T06:24:34.788Z,94732
2018-03-08T06:25:06.824Z,94732
2018-03-08T06:25:39.634Z,94740
2018-03-08T06:26:11.660Z,94739
2018-03-08T06:26:43.698Z,94735
2018-03-08T06:27:16.484Z,94735
2018-03-08T06:27:48.505Z,94732
2018-03-08T06:28:21.300Z,94739
2018-03-08T06:28:53.391Z,94737
2018-03-08T06:29:25.382Z,94736
2018-03-08T06:29:58.171Z,94744
2018-03-08T06:30:30.229Z,94736
2018-03-08T06:31:02.240Z,94739
2018-03-08T06:31:34.266Z,94739
2018-03-08T06:32:06.296Z,94738
2018-03-08T06:32:38.320Z,94741
2018-03-08T06:33:10.361Z,94743
2018-03-08T06:33:43.164Z,94744
2018-03-08T06:34:15.214Z,94741
2018-03-08T06:34:47.235Z,94737
2018-03-08T06:35:20.031Z,94741
2018-03-08T06:35:52.071Z,94744
2018-03-08T06:36:24.110Z,94747
2018-03-08T06:36:56.899Z,94749
2018-03-08T06:37:28.940Z,94747
2018-03-08T06:38:00.974Z,94749
2018-03-08T06:38:33.771Z,94748
2018-03-08T06:39:05.810Z,94748
2018-03-08T06:39:37.857Z,94749
2018-03-08T06:40:10.670Z,94751
2018-03-08T06:40:42.701Z,94746
2018-03-08T06:41:14.729Z,94745
2018-03-08T06:41:46.780Z,94751
2018-03-08T06:42:18.825Z,94747
2018-03-08T06:42:51.652Z,94749
2018-03-08T06:43:23.674Z,94755
2018-03-08T06:43:55.721Z,94753
2018-03-08T06:44:27.772Z,94747
2018-03-08T06:44:59.829Z,94747
2018-03-08T06:45:31.902Z,94752
2018-03-08T06:46:03.931Z,94759
2018-03-08T06:46:35.984Z,94753
2018-03-08T06:47:08.027Z,94755
2018-03-08T06:47:40.049Z,94752
2018-03-08T06:48:12.864Z,94756
2018-03-08T06:48:45.019Z,94758
2018-03-08T06:49:17.059Z,94760
2018-03-08T06:49:49.088Z,94757
2018-03-08T06:50:21.929Z,94758
2018-03-08T06:50:53.988Z,94760
2018-03-08T06:51:26.015Z,94766
2018-03-08T06:51:58.103Z,94759
2018-03-08T06:52:30.110Z,94763
2018-03-08T06:53:02.131Z,94764
2018-03-08T06:53:34.182Z,94765
2018-03-08T06:54:06.233Z,94765
2018-03-08T06:54:38.274Z,94765
2018-03-08T06:55:10.312Z,94772